Time;durP1;ratioP1;P1;durP2;ratioP2;P2;SDS_P1;SDS_P2;PMS_P1;PMS_P2;Temp;Humidity;BMP_temperature;BMP_pressure;BME280_temperature;BME280_humidity;BME280_pressure;Samples;Min_cycle;Max_cycle;Signal;HPM_P1;HPM_P2
2023/02/06 00:00:29;;;;;;;;;;;3.20;99.90;;;;;;5089579;28;19982;-74
2023/02/06 00:02:56;;;;;;;;;;;3.10;99.90;;;;;;5086124;28;21331;-75
2023/02/06 00:05:22;;;;;;;;;;;3.00;99.90;;;;;;5087992;28;19954;-72
2023/02/06 00:07:49;;;;;;;;;;;3.00;99.90;;;;;;5087156;28;20430;-73
2023/02/06 00:10:16;;;;;;;;;;;3.00;99.90;;;;;;5089606;28;19928;-74
2023/02/06 00:12:42;;;;;;;;;;;3.10;99.90;;;;;;5086561;28;20019;-74
2023/02/06 00:15:09;;;;;;;;;;;3.10;99.90;;;;;;5087372;28;19932;-73
2023/02/06 00:17:37;;;;;;;;;;;3.00;99.90;;;;;;5089549;28;19924;-74
2023/02/06 00:20:05;;;;;;;;;;;3.00;99.90;;;;;;5089802;28;20393;-74
2023/02/06 00:22:32;;;;;;;;;;;3.00;99.90;;;;;;5092679;28;19930;-74
2023/02/06 00:24:58;;;;;;;;;;;3.10;99.90;;;;;;5087907;28;19963;-74
2023/02/06 00:27:25;;;;;;;;;;;3.00;99.90;;;;;;5089738;28;19924;-74
2023/02/06 00:29:52;;;;;;;;;;;3.10;99.90;;;;;;5087411;28;19924;-74
2023/02/06 00:32:18;;;;;;;;;;;3.10;99.90;;;;;;5089482;28;19924;-73
2023/02/06 00:34:46;;;;;;;;;;;3.10;99.90;;;;;;5087136;28;19924;-74
2023/02/06 00:37:13;;;;;;;;;;;3.10;99.90;;;;;;5088975;28;19924;-72
2023/02/06 00:39:40;;;;;;;;;;;3.10;99.90;;;;;;5083934;28;19986;-72
2023/02/06 00:42:07;;;;;;;;;;;3.10;99.90;;;;;;5086847;28;19924;-73
2023/02/06 00:44:33;;;;;;;;;;;3.00;99.90;;;;;;5089992;28;20014;-72
2023/02/06 00:47:00;;;;;;;;;;;2.90;99.90;;;;;;5086299;28;19928;-73
2023/02/06 00:49:27;;;;;;;;;;;2.80;99.90;;;;;;5087887;28;20043;-73
2023/02/06 00:51:55;;;;;;;;;;;2.80;99.90;;;;;;5086742;28;19938;-74
2023/02/06 00:54:21;;;;;;;;;;;2.90;99.90;;;;;;5088997;28;20023;-73
2023/02/06 00:56:48;;;;;;;;;;;2.90;99.90;;;;;;5085949;28;20147;-74
2023/02/06 00:59:15;;;;;;;;;;;2.90;99.90;;;;;;5087044;28;20356;-73
2023/02/06 01:01:41;;;;;;;;;;;2.80;99.90;;;;;;5085690;28;19931;-74
2023/02/06 01:04:08;;;;;;;;;;;2.80;99.90;;;;;;5086647;28;20015;-73
2023/02/06 01:06:35;;;;;;;;;;;2.70;99.90;;;;;;5086718;28;20019;-73
2023/02/06 01:09:03;;;;;;;;;;;2.70;99.90;;;;;;5083491;28;20011;-74
2023/02/06 01:11:29;;;;;;;;;;;2.70;99.90;;;;;;5088823;28;19924;-74
2023/02/06 01:13:56;;;;;;;;;;;2.70;99.90;;;;;;5084657;28;19931;-73
2023/02/06 01:16:23;;;;;;;;;;;2.70;99.90;;;;;;5085734;28;19924;-74
2023/02/06 01:18:50;;;;;;;;;;;2.70;99.90;;;;;;5087685;28;20007;-74
2023/02/06 01:21:19;;;;;;;;;;;2.80;99.90;;;;;;5085530;28;20015;-74
2023/02/06 01:23:46;;;;;;;;;;;2.70;99.90;;;;;;5085641;28;19932;-74
2023/02/06 01:26:15;;;;;;;;;;;2.70;99.90;;;;;;5088996;28;20290;-74
2023/02/06 01:28:42;;;;;;;;;;;2.70;99.90;;;;;;5084391;28;19924;-73
2023/02/06 01:31:10;;;;;;;;;;;2.70;99.90;;;;;;5085921;28;19981;-74
2023/02/06 01:33:37;;;;;;;;;;;2.80;99.90;;;;;;5089688;28;19930;-75
2023/02/06 01:36:04;;;;;;;;;;;2.80;99.90;;;;;;5080912;28;20006;-74
2023/02/06 01:38:30;;;;;;;;;;;2.80;99.90;;;;;;5084382;28;19930;-74
2023/02/06 01:41:00;;;;;;;;;;;2.80;99.90;;;;;;5086495;28;19928;-75
2023/02/06 01:43:29;;;;;;;;;;;2.80;99.90;;;;;;5089893;28;20287;-75
2023/02/06 01:45:56;;;;;;;;;;;2.80;99.90;;;;;;5085234;28;19931;-74
2023/02/06 01:48:27;;;;;;;;;;;2.70;99.90;;;;;;5090114;28;19924;-73
2023/02/06 01:50:55;;;;;;;;;;;2.70;99.90;;;;;;5087438;28;19924;-74
2023/02/06 01:53:23;;;;;;;;;;;2.60;99.90;;;;;;5085023;28;19924;-74
2023/02/06 01:55:50;;;;;;;;;;;2.50;99.90;;;;;;5086475;28;20293;-74
2023/02/06 01:58:20;;;;;;;;;;;2.50;99.90;;;;;;5087827;28;19924;-73
2023/02/06 02:00:49;;;;;;;;;;;2.50;99.90;;;;;;5087170;28;19924;-74
2023/02/06 02:03:15;;;;;;;;;;;2.50;99.90;;;;;;5088940;28;19960;-74
2023/02/06 02:05:43;;;;;;;;;;;2.50;99.90;;;;;;5086166;28;19924;-72
2023/02/06 02:08:12;;;;;;;;;;;2.50;99.90;;;;;;5088462;28;20023;-72
2023/02/06 02:10:38;;;;;;;;;;;2.60;99.90;;;;;;5085905;28;19933;-73
2023/02/06 02:13:05;;;;;;;;;;;2.60;99.90;;;;;;5088336;28;20018;-72
2023/02/06 02:15:37;;;;;;;;;;;2.60;99.90;;;;;;5087136;28;19924;-72
2023/02/06 02:18:09;;;;;;;;;;;2.70;99.90;;;;;;5090325;28;19931;-73
2023/02/06 02:20:44;;;;;;;;;;;2.70;99.90;;;;;;5091145;28;20019;-73
2023/02/06 02:23:18;;;;;;;;;;;2.80;99.90;;;;;;5091863;28;19930;-73
2023/02/06 02:25:56;;;;;;;;;;;2.80;99.90;;;;;;5092773;28;20344;-73
2023/02/06 02:28:47;;;;;;;;;;;2.90;99.90;;;;;;5093590;28;20275;-72
2023/02/06 02:31:33;;;;;;;;;;;3.00;99.90;;;;;;5064926;28;20015;-72
2023/02/06 02:34:20;;;;;;;;;;;3.10;99.90;;;;;;5093855;28;19935;-73
2023/02/06 02:36:51;;;;;;;;;;;3.10;99.90;;;;;;5033637;28;19931;-73
2023/02/06 02:39:20;;;;;;;;;;;3.20;99.90;;;;;;5090066;28;19924;-73
2023/02/06 02:41:50;;;;;;;;;;;3.10;99.90;;;;;;5089912;28;19931;-73
2023/02/06 02:44:21;;;;;;;;;;;3.10;99.90;;;;;;5092354;28;19930;-73
2023/02/06 02:46:49;;;;;;;;;;;3.10;99.90;;;;;;5090233;28;19924;-72
2023/02/06 02:49:17;;;;;;;;;;;3.10;99.90;;;;;;5090928;28;19984;-73
2023/02/06 02:51:45;;;;;;;;;;;3.10;99.90;;;;;;5089872;28;20272;-73
2023/02/06 02:54:13;;;;;;;;;;;3.10;99.90;;;;;;5091083;28;20329;-73
2023/02/06 02:56:40;;;;;;;;;;;3.10;99.90;;;;;;5090459;28;19935;-73
2023/02/06 02:59:08;;;;;;;;;;;3.10;99.90;;;;;;5092332;28;20402;-73
2023/02/06 03:01:37;;;;;;;;;;;3.10;99.90;;;;;;5088918;28;19931;-73
2023/02/06 03:04:07;;;;;;;;;;;3.20;99.90;;;;;;5091226;28;19924;-74
2023/02/06 03:06:37;;;;;;;;;;;3.20;99.90;;;;;;5086728;28;19971;-74
2023/02/06 03:09:08;;;;;;;;;;;3.20;99.90;;;;;;5089710;28;20380;-74
2023/02/06 03:11:38;;;;;;;;;;;3.20;99.90;;;;;;5091772;28;20011;-72
2023/02/06 03:14:09;;;;;;;;;;;3.30;99.90;;;;;;5089396;28;19930;-72
2023/02/06 03:16:37;;;;;;;;;;;3.30;99.90;;;;;;5083423;28;20011;-73
2023/02/06 03:19:05;;;;;;;;;;;3.30;99.90;;;;;;5088070;28;20414;-73
2023/02/06 03:21:33;;;;;;;;;;;3.30;99.90;;;;;;5091994;28;19924;-73
2023/02/06 03:24:02;;;;;;;;;;;3.30;99.90;;;;;;5088705;28;19934;-73
2023/02/06 03:26:30;;;;;;;;;;;3.30;99.90;;;;;;5090107;28;20604;-73
2023/02/06 03:28:59;;;;;;;;;;;3.20;99.90;;;;;;5088728;28;20043;-73
2023/02/06 03:31:28;;;;;;;;;;;3.10;99.90;;;;;;5090255;28;19924;-73
2023/02/06 03:33:57;;;;;;;;;;;3.00;99.90;;;;;;5086535;28;19931;-74
2023/02/06 03:36:24;;;;;;;;;;;2.90;99.90;;;;;;5090639;28;19924;-74
2023/02/06 03:38:52;;;;;;;;;;;2.80;99.90;;;;;;5089377;28;19930;-73
2023/02/06 03:41:21;;;;;;;;;;;2.80;99.90;;;;;;5091104;28;19931;-73
2023/02/06 03:43:48;;;;;;;;;;;2.70;99.90;;;;;;5083683;28;19924;-73
2023/02/06 03:46:17;;;;;;;;;;;2.60;99.90;;;;;;5091101;28;19924;-72
2023/02/06 03:48:45;;;;;;;;;;;2.50;99.90;;;;;;5087059;28;19925;-73
2023/02/06 03:51:14;;;;;;;;;;;2.50;99.90;;;;;;5092641;28;20018;-73
2023/02/06 03:53:42;;;;;;;;;;;2.40;99.90;;;;;;5090030;28;20413;-73
2023/02/06 03:56:12;;;;;;;;;;;2.40;99.90;;;;;;5075530;28;20306;-74
2023/02/06 03:58:39;;;;;;;;;;;2.20;99.90;;;;;;5086143;28;19931;-72
2023/02/06 04:01:06;;;;;;;;;;;2.20;99.90;;;;;;5089698;28;19924;-72
2023/02/06 04:03:34;;;;;;;;;;;2.20;99.90;;;;;;5086446;28;19924;-72
2023/02/06 04:06:01;;;;;;;;;;;2.20;99.90;;;;;;5090667;28;20023;-72
2023/02/06 04:08:27;;;;;;;;;;;2.10;99.90;;;;;;5085442;28;19971;-73
2023/02/06 04:10:54;;;;;;;;;;;2.10;99.90;;;;;;5086704;28;20019;-73
2023/02/06 04:13:21;;;;;;;;;;;2.00;99.90;;;;;;5085523;28;20286;-73
2023/02/06 04:15:47;;;;;;;;;;;2.00;99.90;;;;;;5089914;28;19924;-73
2023/02/06 04:18:14;;;;;;;;;;;1.90;99.90;;;;;;5084088;28;19931;-73
2023/02/06 04:20:42;;;;;;;;;;;1.90;99.90;;;;;;5087416;28;20380;-73
2023/02/06 04:23:09;;;;;;;;;;;1.80;99.90;;;;;;5089753;28;20032;-74
2023/02/06 04:25:35;;;;;;;;;;;1.70;99.90;;;;;;5089921;28;20402;-74
2023/02/06 04:28:02;;;;;;;;;;;1.70;99.90;;;;;;5087875;28;20358;-74
2023/02/06 04:30:28;;;;;;;;;;;1.70;99.90;;;;;;5086839;28;20306;-73
2023/02/06 04:32:55;;;;;;;;;;;1.60;99.90;;;;;;5083622;28;19930;-73
2023/02/06 04:35:22;;;;;;;;;;;1.60;99.90;;;;;;5089013;28;20023;-72
2023/02/06 04:37:50;;;;;;;;;;;1.50;99.90;;;;;;5089865;28;20353;-73
2023/02/06 04:40:17;;;;;;;;;;;1.50;99.90;;;;;;5089023;28;19924;-72
2023/02/06 04:42:43;;;;;;;;;;;1.50;99.90;;;;;;5087645;28;20306;-73
2023/02/06 04:45:10;;;;;;;;;;;1.40;99.90;;;;;;5088781;28;19928;-73
2023/02/06 04:47:37;;;;;;;;;;;1.30;99.90;;;;;;5090556;28;19931;-73
2023/02/06 04:50:03;;;;;;;;;;;1.20;99.90;;;;;;5091078;28;19930;-73
2023/02/06 04:52:30;;;;;;;;;;;1.10;99.90;;;;;;5080815;28;19930;-73
2023/02/06 04:54:58;;;;;;;;;;;1.10;99.90;;;;;;5089927;28;19931;-73
2023/02/06 04:57:25;;;;;;;;;;;1.10;99.90;;;;;;5091107;28;20387;-73
2023/02/06 04:59:52;;;;;;;;;;;1.10;99.90;;;;;;5088465;28;19924;-73
2023/02/06 05:02:19;;;;;;;;;;;1.10;99.90;;;;;;5087205;28;19924;-73
2023/02/06 05:04:45;;;;;;;;;;;1.00;99.90;;;;;;5090964;28;19924;-74
2023/02/06 05:07:12;;;;;;;;;;;1.00;99.90;;;;;;5089010;28;20018;-73
2023/02/06 05:09:39;;;;;;;;;;;1.00;99.90;;;;;;5090951;28;20466;-72
2023/02/06 05:12:07;;;;;;;;;;;1.00;99.90;;;;;;5085824;28;19925;-72
2023/02/06 05:14:34;;;;;;;;;;;1.00;99.90;;;;;;5089484;28;20007;-72
2023/02/06 05:17:00;;;;;;;;;;;1.00;99.90;;;;;;5089805;28;19931;-72
2023/02/06 05:19:27;;;;;;;;;;;0.90;99.90;;;;;;5090567;28;19924;-74
2023/02/06 05:21:53;;;;;;;;;;;0.90;99.90;;;;;;5087226;28;20022;-72
2023/02/06 05:24:20;;;;;;;;;;;0.90;99.90;;;;;;5088956;28;19932;-74
2023/02/06 05:26:47;;;;;;;;;;;1.00;99.90;;;;;;5088124;28;20050;-73
2023/02/06 05:29:15;;;;;;;;;;;1.00;99.90;;;;;;5090578;28;19924;-74
2023/02/06 05:31:41;;;;;;;;;;;1.10;99.90;;;;;;5080073;28;20294;-74
2023/02/06 05:34:09;;;;;;;;;;;1.10;99.90;;;;;;5083724;28;19928;-74
2023/02/06 05:36:35;;;;;;;;;;;1.10;99.90;;;;;;5087453;28;19932;-74
2023/02/06 05:39:03;;;;;;;;;;;1.10;99.90;;;;;;5086448;28;19925;-74
2023/02/06 05:41:30;;;;;;;;;;;1.20;99.90;;;;;;5088096;28;19930;-74
2023/02/06 05:43:56;;;;;;;;;;;1.20;99.90;;;;;;5084012;28;20007;-75
2023/02/06 05:46:24;;;;;;;;;;;1.20;99.90;;;;;;5086371;28;20289;-74
2023/02/06 05:48:51;;;;;;;;;;;1.10;99.90;;;;;;5082773;28;20110;-74
2023/02/06 05:51:18;;;;;;;;;;;1.10;99.90;;;;;;5082259;28;19934;-74
2023/02/06 05:53:44;;;;;;;;;;;1.10;99.90;;;;;;5087201;28;20039;-74
2023/02/06 05:56:11;;;;;;;;;;;1.10;99.90;;;;;;5087536;28;19928;-75
2023/02/06 05:58:38;;;;;;;;;;;1.00;99.90;;;;;;5086936;28;19956;-73
2023/02/06 06:01:04;;;;;;;;;;;1.00;99.90;;;;;;5086195;28;19924;-72
2023/02/06 06:03:33;;;;;;;;;;;0.90;99.90;;;;;;5087082;28;19924;-73
2023/02/06 06:05:59;;;;;;;;;;;0.80;99.90;;;;;;5087115;28;19978;-73
2023/02/06 06:08:26;;;;;;;;;;;0.80;99.90;;;;;;5088184;28;20379;-73
2023/02/06 06:10:53;;;;;;;;;;;0.80;99.90;;;;;;5084695;28;19931;-74
2023/02/06 06:13:19;;;;;;;;;;;0.60;99.90;;;;;;5087215;28;19931;-72
2023/02/06 06:15:49;;;;;;;;;;;0.40;99.90;;;;;;5087784;28;19924;-72
2023/02/06 06:18:16;;;;;;;;;;;0.40;99.90;;;;;;5088783;28;19978;-73
2023/02/06 06:20:44;;;;;;;;;;;0.30;99.90;;;;;;5086706;28;19930;-74
2023/02/06 06:23:11;;;;;;;;;;;0.40;99.90;;;;;;5089354;28;19928;-74
2023/02/06 06:25:38;;;;;;;;;;;0.40;99.90;;;;;;5087715;28;20007;-72
2023/02/06 06:28:05;;;;;;;;;;;0.60;99.90;;;;;;5088075;28;19967;-73
2023/02/06 06:30:31;;;;;;;;;;;0.50;99.90;;;;;;5088628;28;20272;-73
2023/02/06 06:32:58;;;;;;;;;;;0.40;99.90;;;;;;5086558;28;20058;-73
2023/02/06 06:35:25;;;;;;;;;;;0.30;99.90;;;;;;5084310;28;20346;-74
2023/02/06 06:37:53;;;;;;;;;;;0.50;99.90;;;;;;5086042;28;20241;-74
2023/02/06 06:40:20;;;;;;;;;;;0.70;99.90;;;;;;5088019;28;19924;-73
2023/02/06 06:42:47;;;;;;;;;;;0.80;99.90;;;;;;5085545;28;20019;-73
2023/02/06 06:45:13;;;;;;;;;;;0.80;99.90;;;;;;5084139;28;20376;-73
2023/02/06 06:47:40;;;;;;;;;;;0.50;99.90;;;;;;5086287;28;19924;-73
2023/02/06 06:50:07;;;;;;;;;;;0.40;99.90;;;;;;5086725;28;19924;-72
2023/02/06 06:52:34;;;;;;;;;;;0.60;99.90;;;;;;5083591;28;20302;-73
2023/02/06 06:55:02;;;;;;;;;;;0.60;99.90;;;;;;5088912;28;20011;-73
2023/02/06 06:57:30;;;;;;;;;;;0.70;99.90;;;;;;5086598;28;20328;-73
2023/02/06 06:59:56;;;;;;;;;;;0.60;99.90;;;;;;5089833;28;19968;-74
2023/02/06 07:02:23;;;;;;;;;;;0.60;99.90;;;;;;5090508;28;20030;-74
2023/02/06 07:04:50;;;;;;;;;;;0.60;99.90;;;;;;5088819;28;19946;-74
2023/02/06 07:07:16;;;;;;;;;;;0.70;99.90;;;;;;5088590;28;19967;-74
2023/02/06 07:09:43;;;;;;;;;;;0.70;99.90;;;;;;5083624;28;19925;-73
2023/02/06 07:12:11;;;;;;;;;;;0.70;99.90;;;;;;5090250;28;20014;-73
2023/02/06 07:14:39;;;;;;;;;;;0.70;99.90;;;;;;5086669;28;20371;-73
2023/02/06 07:17:06;;;;;;;;;;;0.70;99.90;;;;;;5087536;28;19924;-74
2023/02/06 07:19:33;;;;;;;;;;;0.80;99.90;;;;;;5090030;28;19928;-73
2023/02/06 07:21:59;;;;;;;;;;;0.90;99.90;;;;;;5088859;28;19924;-74
2023/02/06 07:24:26;;;;;;;;;;;0.90;99.90;;;;;;5091659;28;20019;-74
2023/02/06 07:26:53;;;;;;;;;;;0.90;99.90;;;;;;5090641;28;20058;-72
2023/02/06 07:29:21;;;;;;;;;;;0.90;99.90;;;;;;5089562;28;19928;-73
2023/02/06 07:31:48;;;;;;;;;;;1.00;99.90;;;;;;5090655;28;20347;-73
2023/02/06 07:34:15;;;;;;;;;;;0.90;99.90;;;;;;5087954;28;19931;-74
2023/02/06 07:36:42;;;;;;;;;;;0.90;99.90;;;;;;5090146;28;20229;-74
2023/02/06 07:39:09;;;;;;;;;;;0.90;99.90;;;;;;5090401;28;19935;-73
2023/02/06 07:41:35;;;;;;;;;;;0.90;99.90;;;;;;5089887;28;20000;-74
2023/02/06 07:44:02;;;;;;;;;;;1.00;99.90;;;;;;5087333;28;19931;-74
2023/02/06 07:46:30;;;;;;;;;;;1.00;99.90;;;;;;5088626;28;20012;-74
2023/02/06 07:48:57;;;;;;;;;;;1.00;99.90;;;;;;5087242;28;20030;-74
2023/02/06 07:51:24;;;;;;;;;;;1.00;99.90;;;;;;5081258;28;20422;-74
2023/02/06 07:53:50;;;;;;;;;;;1.10;99.90;;;;;;5083269;28;20023;-73
2023/02/06 07:56:18;;;;;;;;;;;1.10;99.90;;;;;;5083399;28;20017;-75
2023/02/06 07:58:46;;;;;;;;;;;1.20;99.90;;;;;;5080540;28;20159;-75
2023/02/06 08:01:13;;;;;;;;;;;1.20;99.90;;;;;;5082336;28;19928;-75
2023/02/06 08:03:41;;;;;;;;;;;1.20;99.90;;;;;;5086327;28;19974;-75
2023/02/06 08:06:08;;;;;;;;;;;1.30;99.90;;;;;;5090582;28;19977;-75
2023/02/06 08:08:35;;;;;;;;;;;1.30;99.90;;;;;;5077919;28;19967;-75
2023/02/06 08:11:04;;;;;;;;;;;1.30;99.90;;;;;;5073613;28;20339;-75
2023/02/06 08:13:30;;;;;;;;;;;1.40;99.90;;;;;;5081184;28;19970;-75
2023/02/06 08:15:57;;;;;;;;;;;1.60;99.90;;;;;;5077594;28;19967;-76
2023/02/06 08:18:24;;;;;;;;;;;1.70;99.90;;;;;;5080716;28;20368;-76
2023/02/06 08:20:52;;;;;;;;;;;1.80;99.90;;;;;;5076495;28;19924;-74
2023/02/06 08:23:19;;;;;;;;;;;1.90;99.90;;;;;;5072972;28;19924;-75
2023/02/06 08:25:46;;;;;;;;;;;2.10;99.90;;;;;;5076248;28;19932;-75
2023/02/06 08:28:13;;;;;;;;;;;2.10;99.90;;;;;;5078892;28;19971;-74
2023/02/06 08:30:40;;;;;;;;;;;2.10;99.90;;;;;;5073500;28;19931;-75
2023/02/06 08:33:07;;;;;;;;;;;2.10;99.90;;;;;;5087380;28;20026;-74
2023/02/06 08:35:33;;;;;;;;;;;2.10;99.90;;;;;;5082434;28;20329;-75
2023/02/06 08:38:01;;;;;;;;;;;2.10;99.90;;;;;;5074842;28;20379;-76
2023/02/06 08:40:28;;;;;;;;;;;2.20;99.90;;;;;;5072420;28;19963;-76
2023/02/06 08:42:55;;;;;;;;;;;2.40;99.90;;;;;;5080824;28;20298;-75
2023/02/06 08:45:21;;;;;;;;;;;2.40;99.90;;;;;;5078411;28;20469;-75
2023/02/06 08:47:48;;;;;;;;;;;2.40;99.90;;;;;;5071078;28;19980;-74
2023/02/06 08:50:15;;;;;;;;;;;2.50;99.90;;;;;;5075248;28;20063;-75
2023/02/06 08:52:42;;;;;;;;;;;2.50;99.90;;;;;;5080050;28;19924;-74
2023/02/06 08:55:10;;;;;;;;;;;2.50;99.90;;;;;;5073895;28;19931;-75
2023/02/06 08:57:36;;;;;;;;;;;2.50;99.90;;;;;;5076980;28;19923;-75
2023/02/06 09:00:07;;;;;;;;;;;2.40;99.90;;;;;;5072898;28;20459;-76
2023/02/06 09:02:34;;;;;;;;;;;2.40;99.90;;;;;;5077602;28;19935;-75
2023/02/06 09:05:02;;;;;;;;;;;2.40;99.90;;;;;;5074925;28;19974;-76
2023/02/06 09:07:30;;;;;;;;;;;2.30;99.90;;;;;;5076245;28;21481;-73
2023/02/06 09:09:57;;;;;;;;;;;2.20;99.90;;;;;;5078552;28;19924;-74
2023/02/06 09:12:25;;;;;;;;;;;2.20;99.90;;;;;;5077156;28;19954;-74
2023/02/06 09:14:52;;;;;;;;;;;2.10;99.90;;;;;;5081418;28;20304;-75
2023/02/06 09:17:20;;;;;;;;;;;2.10;99.90;;;;;;5073303;28;19932;-74
2023/02/06 09:19:46;;;;;;;;;;;2.30;99.90;;;;;;5077326;28;19928;-75
2023/02/06 09:22:13;;;;;;;;;;;2.40;99.90;;;;;;5075076;28;20011;-75
2023/02/06 09:24:40;;;;;;;;;;;2.60;99.90;;;;;;5080940;28;19931;-76
2023/02/06 09:27:07;;;;;;;;;;;2.80;99.90;;;;;;5076090;28;19924;-76
2023/02/06 09:29:35;;;;;;;;;;;2.80;99.90;;;;;;5075750;28;20019;-76
2023/02/06 09:32:01;;;;;;;;;;;2.90;99.90;;;;;;5081226;28;20294;-76
2023/02/06 09:34:28;;;;;;;;;;;2.80;99.90;;;;;;5077348;28;20455;-76
2023/02/06 09:36:56;;;;;;;;;;;2.90;99.90;;;;;;5080106;28;19932;-76
2023/02/06 09:39:23;;;;;;;;;;;2.90;99.90;;;;;;5080062;28;19932;-78
2023/02/06 09:41:51;;;;;;;;;;;3.10;99.90;;;;;;5081526;28;19924;-76
2023/02/06 09:44:20;;;;;;;;;;;3.30;99.90;;;;;;5075277;28;19944;-77
2023/02/06 09:46:49;;;;;;;;;;;3.50;99.90;;;;;;5075340;28;20011;-76
2023/02/06 09:49:18;;;;;;;;;;;3.50;99.90;;;;;;5075920;28;20243;-76
2023/02/06 09:51:56;;;;;;;;;;;3.60;99.90;;;;;;5081629;28;20380;-76
2023/02/06 09:54:25;;;;;;;;;;;3.80;99.90;;;;;;5069180;28;19977;-77
2023/02/06 09:56:55;;;;;;;;;;;4.00;99.90;;;;;;5071432;28;20860;-75
2023/02/06 09:59:25;;;;;;;;;;;4.10;99.90;;;;;;5072348;28;19962;-76
2023/02/06 10:01:59;;;;;;;;;;;4.20;99.90;;;;;;5071300;28;19950;-76
2023/02/06 10:04:32;;;;;;;;;;;4.30;99.90;;;;;;5075870;28;20087;-75
2023/02/06 10:07:03;;;;;;;;;;;4.40;99.90;;;;;;5073822;28;20425;-76
2023/02/06 10:09:34;;;;;;;;;;;4.40;99.90;;;;;;5072480;28;19938;-76
2023/02/06 10:12:03;;;;;;;;;;;4.50;99.90;;;;;;5074885;28;19924;-76
2023/02/06 10:14:35;;;;;;;;;;;4.70;99.90;;;;;;5078055;28;20796;-76
2023/02/06 10:17:05;;;;;;;;;;;4.90;99.90;;;;;;5070230;28;19939;-76
2023/02/06 10:19:37;;;;;;;;;;;5.10;99.90;;;;;;5075687;28;20811;-76
2023/02/06 10:22:05;;;;;;;;;;;5.30;99.90;;;;;;5077782;28;20028;-76
2023/02/06 10:24:36;;;;;;;;;;;5.50;99.90;;;;;;5070944;28;19924;-75
2023/02/06 10:27:04;;;;;;;;;;;5.50;99.90;;;;;;5078369;28;20139;-77
2023/02/06 10:29:33;;;;;;;;;;;5.60;99.90;;;;;;5076086;28;19932;-75
2023/02/06 10:32:06;;;;;;;;;;;5.80;99.90;;;;;;5075167;28;20464;-76
2023/02/06 10:34:39;;;;;;;;;;;5.80;99.90;;;;;;5085379;28;19958;-76
2023/02/06 10:37:14;;;;;;;;;;;5.90;99.90;;;;;;5076216;28;19951;-76
2023/02/06 10:39:50;;;;;;;;;;;6.00;99.90;;;;;;5075563;28;20398;-74
2023/02/06 10:42:20;;;;;;;;;;;6.10;99.90;;;;;;5076780;28;19960;-76
2023/02/06 10:44:51;;;;;;;;;;;6.00;99.90;;;;;;5076697;28;20349;-76
2023/02/06 10:47:24;;;;;;;;;;;6.10;99.90;;;;;;5081615;28;20319;-76
2023/02/06 10:49:55;;;;;;;;;;;6.10;99.90;;;;;;5079300;28;19928;-76
2023/02/06 10:52:23;;;;;;;;;;;6.10;99.90;;;;;;5077598;28;19924;-76
2023/02/06 10:54:51;;;;;;;;;;;6.00;99.90;;;;;;5080707;28;19963;-76
2023/02/06 10:57:20;;;;;;;;;;;6.00;99.90;;;;;;5074038;28;19930;-77
2023/02/06 10:59:51;;;;;;;;;;;6.10;99.90;;;;;;5075530;28;20005;-76
2023/02/06 11:02:20;;;;;;;;;;;6.40;99.90;;;;;;5080655;28;20346;-76
2023/02/06 11:04:52;;;;;;;;;;;6.30;99.90;;;;;;5085321;28;19924;-76
2023/02/06 11:07:24;;;;;;;;;;;6.30;99.90;;;;;;5077684;28;19988;-76
2023/02/06 11:09:51;;;;;;;;;;;6.40;99.90;;;;;;5079903;28;19924;-76
2023/02/06 11:12:24;;;;;;;;;;;6.40;99.90;;;;;;5079147;28;19970;-76
2023/02/06 11:14:52;;;;;;;;;;;6.50;99.90;;;;;;5074859;28;19935;-76
2023/02/06 11:17:19;;;;;;;;;;;6.60;99.90;;;;;;5077837;28;19941;-76
2023/02/06 11:19:48;;;;;;;;;;;6.70;99.90;;;;;;5082030;28;19932;-77
2023/02/06 11:22:16;;;;;;;;;;;6.30;99.90;;;;;;5076142;28;19925;-76
2023/02/06 11:24:58;;;;;;;;;;;6.20;99.90;;;;;;5077566;28;19950;-77
2023/02/06 11:27:25;;;;;;;;;;;6.40;99.90;;;;;;5076411;28;19964;-77
2023/02/06 11:29:51;;;;;;;;;;;6.60;99.90;;;;;;5076776;28;19930;-76
2023/02/06 11:32:27;;;;;;;;;;;6.20;99.90;;;;;;5074446;28;19967;-77
2023/02/06 11:34:56;;;;;;;;;;;6.10;99.90;;;;;;5086253;28;20355;-77
2023/02/06 11:37:31;;;;;;;;;;;6.10;99.90;;;;;;5077458;28;20029;-74
2023/02/06 11:40:13;;;;;;;;;;;6.30;99.90;;;;;;5081988;28;20282;-75
2023/02/06 11:42:40;;;;;;;;;;;6.50;99.90;;;;;;5085061;28;20290;-74
2023/02/06 11:45:17;;;;;;;;;;;6.50;99.90;;;;;;5080270;28;20019;-75
2023/02/06 11:47:44;;;;;;;;;;;6.70;99.90;;;;;;5083479;28;19924;-76
2023/02/06 11:50:20;;;;;;;;;;;6.90;99.90;;;;;;5085301;28;19931;-76
2023/02/06 11:52:48;;;;;;;;;;;6.70;99.90;;;;;;5078138;28;19934;-75
2023/02/06 11:55:25;;;;;;;;;;;6.80;99.90;;;;;;5085515;28;20015;-76
2023/02/06 11:58:02;;;;;;;;;;;7.10;99.90;;;;;;5078946;28;19924;-77
2023/02/06 12:00:29;;;;;;;;;;;7.30;99.90;;;;;;5083747;28;20375;-76
2023/02/06 12:02:55;;;;;;;;;;;7.30;99.90;;;;;;5088222;28;20326;-76
2023/02/06 12:05:24;;;;;;;;;;;7.30;99.90;;;;;;5091917;28;20007;-76
2023/02/06 12:07:56;;;;;;;;;;;7.10;99.90;;;;;;5088392;28;19940;-75
2023/02/06 12:10:23;;;;;;;;;;;7.00;99.90;;;;;;5084813;28;19935;-74
2023/02/06 12:12:54;;;;;;;;;;;7.00;99.90;;;;;;5079320;28;19924;-76
2023/02/06 12:15:21;;;;;;;;;;;7.00;99.90;;;;;;5076167;28;19950;-76
2023/02/06 12:17:54;;;;;;;;;;;7.20;99.90;;;;;;5075741;28;19924;-75
2023/02/06 12:20:22;;;;;;;;;;;7.40;99.90;;;;;;5078303;28;19993;-78
2023/02/06 12:22:51;;;;;;;;;;;7.60;99.90;;;;;;5082760;28;19931;-77
2023/02/06 12:25:25;;;;;;;;;;;7.60;99.90;;;;;;5079009;28;19931;-76
2023/02/06 12:27:54;;;;;;;;;;;7.40;99.90;;;;;;5081836;28;19924;-75
2023/02/06 12:30:26;;;;;;;;;;;7.50;99.90;;;;;;5076650;28;20011;-76
2023/02/06 12:32:55;;;;;;;;;;;7.30;99.90;;;;;;5078887;28;19924;-76
2023/02/06 12:35:26;;;;;;;;;;;6.90;99.90;;;;;;5078524;28;20380;-77
2023/02/06 12:37:55;;;;;;;;;;;6.70;99.90;;;;;;5082028;28;20022;-76
2023/02/06 12:40:30;;;;;;;;;;;6.70;99.90;;;;;;5072530;28;20195;-76
2023/02/06 12:43:00;;;;;;;;;;;7.00;99.90;;;;;;5086808;28;20014;-75
2023/02/06 12:45:32;;;;;;;;;;;7.00;99.90;;;;;;5087210;28;19930;-76
2023/02/06 12:48:01;;;;;;;;;;;6.90;99.90;;;;;;5073230;28;20315;-76
2023/02/06 12:50:29;;;;;;;;;;;7.20;99.90;;;;;;5074718;28;20387;-76
2023/02/06 12:52:58;;;;;;;;;;;7.40;99.90;;;;;;5083818;28;20052;-76
2023/02/06 12:55:28;;;;;;;;;;;7.70;99.90;;;;;;5079264;28;20010;-76
2023/02/06 12:57:56;;;;;;;;;;;7.40;99.90;;;;;;5083027;28;20401;-76
2023/02/06 13:00:32;;;;;;;;;;;7.30;99.90;;;;;;5076236;28;20011;-75
2023/02/06 13:03:17;;;;;;;;;;;7.20;99.90;;;;;;5078138;28;20083;-75
2023/02/06 13:05:45;;;;;;;;;;;7.30;99.90;;;;;;5079031;28;19930;-70
2023/02/06 13:08:14;;;;;;;;;;;7.20;99.90;;;;;;5078312;28;20023;-71
2023/02/06 13:10:43;;;;;;;;;;;7.60;99.90;;;;;;5080902;28;19960;-70
2023/02/06 13:13:24;;;;;;;;;;;7.70;99.90;;;;;;5073201;28;19928;-70
2023/02/06 13:15:53;;;;;;;;;;;8.00;99.90;;;;;;5080826;28;19928;-76
2023/02/06 13:18:51;;;;;;;;;;;7.60;99.90;;;;;;5077720;28;19970;-75
2023/02/06 13:21:19;;;;;;;;;;;7.70;99.90;;;;;;5013189;28;20038;-74
2023/02/06 13:23:50;;;;;;;;;;;7.90;99.90;;;;;;5063674;28;20007;-74
2023/02/06 13:26:19;;;;;;;;;;;7.90;99.90;;;;;;5073103;28;20291;-75
2023/02/06 13:28:56;;;;;;;;;;;7.90;99.90;;;;;;5072566;28;20003;-74
2023/02/06 13:31:25;;;;;;;;;;;7.80;99.90;;;;;;5075860;28;20439;-76
2023/02/06 13:33:53;;;;;;;;;;;8.00;99.90;;;;;;5073043;28;19957;-73
2023/02/06 13:36:26;;;;;;;;;;;8.10;99.90;;;;;;5073838;28;19977;-75
2023/02/06 13:38:54;;;;;;;;;;;8.00;99.90;;;;;;5074835;28;20391;-74
2023/02/06 13:41:36;;;;;;;;;;;7.60;99.90;;;;;;5077680;28;19983;-75
2023/02/06 13:44:05;;;;;;;;;;;7.70;99.90;;;;;;5083848;28;19924;-75
2023/02/06 13:46:49;;;;;;;;;;;7.70;99.90;;;;;;5087731;28;20015;-74
2023/02/06 13:49:28;;;;;;;;;;;7.70;99.90;;;;;;5079327;28;19924;-74
2023/02/06 13:52:05;;;;;;;;;;;7.70;99.90;;;;;;5076219;28;20388;-76
2023/02/06 13:54:49;;;;;;;;;;;7.70;99.90;;;;;;5078096;28;20063;-75
2023/02/06 13:57:22;;;;;;;;;;;7.70;99.90;;;;;;5080334;28;19930;-76
2023/02/06 13:59:50;;;;;;;;;;;7.70;99.90;;;;;;5082740;28;19924;-78
2023/02/06 14:02:22;;;;;;;;;;;7.60;99.90;;;;;;5075949;28;19988;-78
2023/02/06 14:04:50;;;;;;;;;;;7.60;99.90;;;;;;5085634;28;19924;-79
2023/02/06 14:07:26;;;;;;;;;;;7.70;99.90;;;;;;5082510;28;19978;-79
2023/02/06 14:10:01;;;;;;;;;;;7.60;99.90;;;;;;5083436;28;19930;-78
2023/02/06 14:12:38;;;;;;;;;;;7.70;99.90;;;;;;5082013;28;20386;-77
2023/02/06 14:15:15;;;;;;;;;;;7.60;99.90;;;;;;5076442;28;19924;-75
2023/02/06 14:17:49;;;;;;;;;;;7.60;99.90;;;;;;5074677;28;20366;-79
2023/02/06 14:20:20;;;;;;;;;;;7.50;99.90;;;;;;5079948;28;19932;-77
2023/02/06 14:22:50;;;;;;;;;;;7.50;99.90;;;;;;5078780;28;20026;-79
2023/02/06 14:25:23;;;;;;;;;;;7.50;99.90;;;;;;5082948;28;19933;-79
2023/02/06 14:28:02;;;;;;;;;;;7.40;99.90;;;;;;5073330;28;20036;-80
2023/02/06 14:30:32;;;;;;;;;;;7.40;99.90;;;;;;5078376;28;20016;-76
2023/02/06 14:33:07;;;;;;;;;;;7.30;99.90;;;;;;5081320;28;19924;-76
2023/02/06 14:35:43;;;;;;;;;;;7.30;99.90;;;;;;5084186;28;19959;-76
2023/02/06 14:38:26;;;;;;;;;;;7.20;99.90;;;;;;5075863;28;20292;-76
2023/02/06 14:40:54;;;;;;;;;;;7.20;99.90;;;;;;5078873;28;20336;-76